Time;durP1;ratioP1;P1;durP2;ratioP2;P2;SDS_P1;SDS_P2;PMS_P1;PMS_P2;Temp;Humidity;BMP_temperature;BMP_pressure;BME280_temperature;BME280_humidity;BME280_pressure;Samples;Min_cycle;Max_cycle;Signal;HPM_P1;HPM_P2
2023/10/16 00:00:33;;;;;;;12.40;3.85;;;;;;;;;;4951101;28;20118;-74
2023/10/16 00:03:02;;;;;;;11.93;3.90;;;;;;;;;;4960792;28;20050;-72
2023/10/16 00:05:38;;;;;;;13.40;3.67;;;;;;;;;;4958270;28;20327;-72
2023/10/16 00:08:08;;;;;;;8.45;3.13;;;;;;;;;;4955574;28;20398;-72
2023/10/16 00:10:35;;;;;;;10.68;2.42;;;;;;;;;;4939458;28;20512;-72
2023/10/16 00:13:05;;;;;;;12.10;3.50;;;;;;;;;;4942193;28;20061;-72
2023/10/16 00:15:49;;;;;;;10.25;2.90;;;;;;;;;;4959780;28;20026;-72
2023/10/16 00:18:22;;;;;;;9.27;2.70;;;;;;;;;;4959283;28;20806;-73
2023/10/16 00:20:49;;;;;;;10.05;2.60;;;;;;;;;;4961974;28;20038;-72
2023/10/16 00:23:17;;;;;;;11.70;2.78;;;;;;;;;;4959542;28;20034;-72
2023/10/16 00:25:50;;;;;;;9.85;2.47;;;;;;;;;;4961995;28;20275;-73
2023/10/16 00:28:22;;;;;;;7.50;2.28;;;;;;;;;;4960856;28;20026;-73
2023/10/16 00:30:49;;;;;;;12.57;2.67;;;;;;;;;;4961201;28;20036;-72
2023/10/16 00:33:16;;;;;;;9.48;3.05;;;;;;;;;;4957366;28;20031;-72
2023/10/16 00:35:45;;;;;;;10.13;3.00;;;;;;;;;;4965214;28;20022;-72
2023/10/16 00:38:15;;;;;;;9.23;2.70;;;;;;;;;;4959542;28;20135;-72
2023/10/16 00:40:51;;;;;;;9.07;2.70;;;;;;;;;;4974685;28;20045;-72
2023/10/16 00:43:20;;;;;;;10.80;2.65;;;;;;;;;;4959351;28;20030;-72
2023/10/16 00:45:54;;;;;;;11.20;2.55;;;;;;;;;;4959267;28;20111;-73
2023/10/16 00:48:21;;;;;;;10.57;2.97;;;;;;;;;;4919101;28;20331;-72
2023/10/16 00:50:48;;;;;;;8.57;2.42;;;;;;;;;;4924127;28;20042;-73
2023/10/16 00:53:33;;;;;;;8.30;2.70;;;;;;;;;;4923599;28;20542;-73
2023/10/16 00:56:02;;;;;;;9.32;2.63;;;;;;;;;;4920829;28;21078;-72
2023/10/16 00:58:29;;;;;;;8.38;2.78;;;;;;;;;;4921452;28;20062;-72
2023/10/16 01:01:02;;;;;;;9.18;2.67;;;;;;;;;;4940586;28;20450;-72
2023/10/16 01:03:31;;;;;;;8.70;2.70;;;;;;;;;;4922913;28;21389;-72
2023/10/16 01:05:58;;;;;;;9.48;2.80;;;;;;;;;;4926726;28;20062;-73
2023/10/16 01:08:28;;;;;;;9.38;2.60;;;;;;;;;;4924205;28;20069;-72
2023/10/16 01:10:57;;;;;;;8.55;2.35;;;;;;;;;;4940042;28;20741;-72
2023/10/16 01:13:26;;;;;;;10.93;2.75;;;;;;;;;;4920166;28;22263;-74
2023/10/16 01:15:53;;;;;;;11.55;3.10;;;;;;;;;;4922234;28;20041;-73
2023/10/16 01:18:19;;;;;;;13.52;3.25;;;;;;;;;;4935049;28;20026;-74
2023/10/16 01:20:49;;;;;;;9.70;2.92;;;;;;;;;;4941390;28;20365;-74
2023/10/16 01:23:18;;;;;;;10.00;2.88;;;;;;;;;;4922956;28;20038;-73
2023/10/16 01:25:48;;;;;;;11.27;2.80;;;;;;;;;;4959480;28;20039;-73
2023/10/16 01:28:15;;;;;;;10.07;2.60;;;;;;;;;;4959577;28;20027;-72
2023/10/16 01:30:42;;;;;;;9.80;2.90;;;;;;;;;;4973453;28;20037;-72
2023/10/16 01:33:09;;;;;;;10.95;2.58;;;;;;;;;;4957791;28;20218;-72
2023/10/16 01:35:38;;;;;;;14.63;2.80;;;;;;;;;;4959513;28;20137;-71
2023/10/16 01:38:24;;;;;;;11.95;2.63;;;;;;;;;;4974609;28;20480;-72
2023/10/16 01:41:09;;;;;;;10.93;2.20;;;;;;;;;;4958973;28;20034;-73
2023/10/16 01:43:36;;;;;;;11.25;2.50;;;;;;;;;;4961928;28;20267;-72
2023/10/16 01:46:07;;;;;;;10.30;2.60;;;;;;;;;;4960131;28;20041;-72
2023/10/16 01:48:34;;;;;;;8.77;2.60;;;;;;;;;;4961962;28;20026;-72
2023/10/16 01:51:01;;;;;;;10.82;2.65;;;;;;;;;;4960664;28;20501;-73
2023/10/16 01:53:32;;;;;;;9.40;2.58;;;;;;;;;;4959627;28;20145;-73
2023/10/16 01:55:58;;;;;;;12.50;2.90;;;;;;;;;;4961075;28;20460;-73
2023/10/16 01:58:30;;;;;;;12.18;2.78;;;;;;;;;;4956987;28;20467;-73
2023/10/16 02:00:56;;;;;;;10.98;2.83;;;;;;;;;;4959590;28;20538;-73
2023/10/16 02:03:25;;;;;;;9.32;2.42;;;;;;;;;;4956813;28;20057;-73
2023/10/16 02:05:52;;;;;;;9.10;2.53;;;;;;;;;;4974731;28;20128;-73
2023/10/16 02:08:21;;;;;;;11.50;2.50;;;;;;;;;;4957288;28;20382;-73
2023/10/16 02:10:49;;;;;;;10.15;2.47;;;;;;;;;;4955675;28;20799;-73
2023/10/16 02:13:16;;;;;;;10.75;2.45;;;;;;;;;;4957713;28;20465;-72
2023/10/16 02:15:42;;;;;;;9.25;2.30;;;;;;;;;;4976001;28;20038;-72
2023/10/16 02:18:27;;;;;;;7.72;2.22;;;;;;;;;;4961462;28;20477;-72
2023/10/16 02:20:53;;;;;;;7.72;2.10;;;;;;;;;;4956990;28;20038;-73
2023/10/16 02:23:19;;;;;;;9.38;2.28;;;;;;;;;;4954864;28;20034;-72
2023/10/16 02:25:46;;;;;;;10.05;2.45;;;;;;;;;;4958098;28;20161;-72
2023/10/16 02:28:13;;;;;;;8.35;2.10;;;;;;;;;;4957438;28;20029;-72
2023/10/16 02:30:41;;;;;;;9.45;2.45;;;;;;;;;;4959856;28;20030;-72
2023/10/16 02:33:26;;;;;;;9.02;2.35;;;;;;;;;;4958439;28;20556;-72
2023/10/16 02:35:53;;;;;;;7.28;2.17;;;;;;;;;;4972733;28;20556;-72
2023/10/16 02:38:29;;;;;;;7.20;2.20;;;;;;;;;;4969914;28;20076;-72
2023/10/16 02:41:04;;;;;;;10.48;2.60;;;;;;;;;;4956912;28;20030;-72
2023/10/16 02:43:31;;;;;;;10.32;2.38;;;;;;;;;;4957258;28;20438;-72
2023/10/16 02:46:01;;;;;;;8.68;1.95;;;;;;;;;;4975220;28;20128;-71
2023/10/16 02:48:27;;;;;;;8.60;2.40;;;;;;;;;;4957289;28;20507;-72
2023/10/16 02:50:59;;;;;;;10.25;2.63;;;;;;;;;;4960691;28;20026;-72
2023/10/16 02:53:26;;;;;;;9.68;2.45;;;;;;;;;;4958231;28;20041;-72
2023/10/16 02:55:57;;;;;;;9.80;2.33;;;;;;;;;;4960210;28;20034;-72
2023/10/16 02:58:24;;;;;;;8.50;2.30;;;;;;;;;;4956871;28;22001;-72
2023/10/16 03:00:55;;;;;;;6.97;1.98;;;;;;;;;;4958199;28;20457;-72
2023/10/16 03:03:21;;;;;;;8.45;2.00;;;;;;;;;;4958535;28;20521;-72
2023/10/16 03:05:49;;;;;;;10.60;2.33;;;;;;;;;;4960856;28;20318;-72
2023/10/16 03:08:18;;;;;;;8.32;2.15;;;;;;;;;;4954719;28;20364;-72
2023/10/16 03:10:45;;;;;;;9.07;2.40;;;;;;;;;;4961862;28;20410;-73
2023/10/16 03:13:14;;;;;;;9.68;2.30;;;;;;;;;;4956690;28;20018;-72
2023/10/16 03:15:46;;;;;;;12.75;2.22;;;;;;;;;;4960697;28;20959;-73
2023/10/16 03:18:22;;;;;;;9.63;2.53;;;;;;;;;;4972821;28;20330;-73
2023/10/16 03:20:48;;;;;;;8.70;2.15;;;;;;;;;;4972373;28;20153;-72
2023/10/16 03:23:14;;;;;;;10.65;2.30;;;;;;;;;;4972993;28;20045;-73
2023/10/16 03:28:07;;;;;;;8.50;2.15;;;;;;;;;;4956109;28;20043;-73
2023/10/16 03:30:34;;;;;;;7.95;2.15;;;;;;;;;;4961215;28;20052;-72
2023/10/16 03:33:03;;;;;;;8.75;2.40;;;;;;;;;;4960917;28;20065;-73
2023/10/16 03:35:30;;;;;;;9.02;2.35;;;;;;;;;;4964099;28;20034;-73
2023/10/16 03:38:01;;;;;;;8.77;2.20;;;;;;;;;;4964263;28;20525;-72
2023/10/16 03:40:28;;;;;;;11.57;2.88;;;;;;;;;;4959834;28;20041;-73
2023/10/16 03:42:55;;;;;;;11.82;2.80;;;;;;;;;;4964325;28;20103;-73
2023/10/16 03:45:21;;;;;;;10.07;2.40;;;;;;;;;;4964264;28;20050;-72
2023/10/16 03:47:57;;;;;;;10.77;2.45;;;;;;;;;;4965472;28;20680;-72
2023/10/16 03:50:34;;;;;;;12.50;2.50;;;;;;;;;;4962068;28;20531;-72
2023/10/16 03:53:07;;;;;;;12.27;2.67;;;;;;;;;;4965125;28;20065;-72
2023/10/16 03:55:40;;;;;;;10.00;2.40;;;;;;;;;;4979941;28;20046;-72
2023/10/16 03:58:06;;;;;;;10.65;2.47;;;;;;;;;;4976322;28;20171;-72
2023/10/16 04:00:52;;;;;;;8.73;2.20;;;;;;;;;;4975464;28;20475;-72
2023/10/16 04:03:21;;;;;;;9.23;2.30;;;;;;;;;;4963562;28;20046;-74
2023/10/16 04:05:48;;;;;;;10.98;2.42;;;;;;;;;;4968602;28;20576;-74
2023/10/16 04:08:15;;;;;;;10.30;2.47;;;;;;;;;;4961278;28;20107;-74
2023/10/16 04:10:48;;;;;;;10.63;3.67;;;;;;;;;;4968331;28;20757;-74
2023/10/16 04:13:26;;;;;;;10.50;3.55;;;;;;;;;;4979227;28;20045;-73
2023/10/16 04:18:31;;;;;;;7.93;2.20;;;;;;;;;;4966110;28;20041;-73
2023/10/16 04:23:52;;;;;;;10.50;2.53;;;;;;;;;;4960284;28;20329;-73
2023/10/16 04:29:45;;;;;;;9.43;2.53;;;;;;;;;;4965128;28;20467;-73
2023/10/16 04:45:24;;;;;;;9.15;2.30;;;;;;;;;;4961314;28;20112;-72
2023/10/16 05:09:53;;;;;;;18.48;9.30;;;;;;;;;;4962267;28;20069;-74
2023/10/16 06:14:45;;;;;;;10.45;4.13;;;;;;;;;;4957994;28;20587;-73
2023/10/16 06:17:15;;;;;;;12.80;4.30;;;;;;;;;;4955544;28;20038;-73
2023/10/16 06:19:51;;;;;;;12.15;3.20;;;;;;;;;;5016430;28;20167;-72
2023/10/16 06:22:17;;;;;;;11.23;3.75;;;;;;;;;;5011424;28;20056;-73
2023/10/16 06:24:47;;;;;;;12.75;3.63;;;;;;;;;;5018295;28;20036;-73
2023/10/16 06:27:20;;;;;;;14.25;3.90;;;;;;;;;;5013331;28;20247;-72
2023/10/16 06:29:50;;;;;;;18.65;4.60;;;;;;;;;;5010418;28;20025;-72
2023/10/16 06:32:19;;;;;;;17.35;4.22;;;;;;;;;;5015723;28;20122;-73
2023/10/16 06:34:49;;;;;;;14.32;4.60;;;;;;;;;;5014296;28;20468;-73
2023/10/16 06:37:19;;;;;;;12.98;3.88;;;;;;;;;;5017578;28;20044;-73
2023/10/16 06:39:45;;;;;;;11.82;3.90;;;;;;;;;;5014116;28;20297;-72
2023/10/16 06:42:18;;;;;;;14.13;3.47;;;;;;;;;;5030255;28;20068;-73
2023/10/16 06:45:03;;;;;;;11.43;3.00;;;;;;;;;;5016155;28;20584;-72
2023/10/16 06:47:36;;;;;;;13.40;3.78;;;;;;;;;;5016916;28;20032;-73
2023/10/16 06:50:53;;;;;;;15.52;4.28;;;;;;;;;;5017411;28;20035;-73
2023/10/16 06:52:53;;;;;;;15.98;4.68;;;;;;;;;;5017990;28;20099;-73
2023/10/16 06:55:21;;;;;;;14.57;4.88;;;;;;;;;;5028447;28;20087;-73
2023/10/16 06:57:47;;;;;;;15.05;4.28;;;;;;;;;;5017762;28;20454;-72
2023/10/16 07:00:23;;;;;;;10.20;3.70;;;;;;;;;;5027470;28;20329;-73
2023/10/16 07:02:54;;;;;;;10.18;3.00;;;;;;;;;;5000637;28;20025;-73
2023/10/16 07:05:42;;;;;;;11.98;3.55;;;;;;;;;;4995926;28;20053;-73
2023/10/16 07:08:08;;;;;;;14.57;5.10;;;;;;;;;;4995948;28;20680;-72
2023/10/16 07:10:34;;;;;;;15.00;5.50;;;;;;;;;;4998904;28;20045;-72
2023/10/16 07:13:02;;;;;;;15.32;4.82;;;;;;;;;;4996956;28;20029;-72
2023/10/16 07:15:29;;;;;;;16.48;5.30;;;;;;;;;;4997034;28;20163;-75
2023/10/16 07:17:55;;;;;;;16.20;5.63;;;;;;;;;;4997220;28;20058;-72
2023/10/16 07:20:29;;;;;;;22.20;7.22;;;;;;;;;;4997305;28;20033;-72
2023/10/16 07:23:02;;;;;;;17.95;7.68;;;;;;;;;;4999188;28;20018;-74
2023/10/16 07:25:47;;;;;;;15.93;6.50;;;;;;;;;;4995294;28;20384;-74
2023/10/16 07:28:15;;;;;;;15.93;7.20;;;;;;;;;;4998407;28;20025;-73
2023/10/16 07:30:45;;;;;;;14.75;8.13;;;;;;;;;;4988223;28;20413;-73
2023/10/16 07:33:14;;;;;;;15.95;7.88;;;;;;;;;;4982757;28;20029;-73
2023/10/16 07:35:42;;;;;;;17.73;8.10;;;;;;;;;;4999010;28;20034;-73
2023/10/16 07:38:10;;;;;;;19.98;7.38;;;;;;;;;;4982661;28;20345;-73
2023/10/16 07:40:37;;;;;;;13.32;6.25;;;;;;;;;;4982452;28;20142;-73
2023/10/16 07:43:04;;;;;;;13.80;5.63;;;;;;;;;;4981948;28;20405;-73
2023/10/16 07:45:32;;;;;;;14.32;4.55;;;;;;;;;;4981259;28;20109;-73
2023/10/16 07:48:07;;;;;;;15.57;4.68;;;;;;;;;;4983382;28;20562;-73
2023/10/16 07:50:38;;;;;;;12.45;4.40;;;;;;;;;;4987101;28;20043;-73
2023/10/16 07:53:07;;;;;;;17.17;5.30;;;;;;;;;;4997597;28;20291;-73
2023/10/16 07:55:39;;;;;;;15.68;4.55;;;;;;;;;;5000199;28;20049;-73
2023/10/16 07:58:15;;;;;;;10.75;3.72;;;;;;;;;;4985911;28;20048;-73
2023/10/16 08:03:45;;;;;;;11.23;3.67;;;;;;;;;;4982305;28;20153;-73
2023/10/16 08:06:12;;;;;;;10.25;3.10;;;;;;;;;;4974549;28;20033;-73
2023/10/16 08:08:42;;;;;;;11.88;3.50;;;;;;;;;;4948210;28;20256;-73
2023/10/16 08:11:13;;;;;;;10.93;2.95;;;;;;;;;;4970501;28;20069;-73
2023/10/16 08:13:46;;;;;;;11.20;3.30;;;;;;;;;;4978388;28;20511;-73
2023/10/16 08:16:16;;;;;;;10.20;3.13;;;;;;;;;;4975224;28;20131;-73
2023/10/16 08:18:43;;;;;;;11.02;3.20;;;;;;;;;;4983021;28;20358;-73
2023/10/16 08:21:09;;;;;;;10.48;3.42;;;;;;;;;;4961694;28;20492;-73
2023/10/16 08:23:35;;;;;;;9.82;3.60;;;;;;;;;;4968928;28;20381;-73
2023/10/16 08:26:14;;;;;;;10.00;3.42;;;;;;;;;;4983955;28;20794;-73
2023/10/16 08:28:47;;;;;;;10.52;3.30;;;;;;;;;;4988114;28;20030;-72
2023/10/16 08:31:25;;;;;;;9.77;3.35;;;;;;;;;;4980090;28;20045;-75
2023/10/16 08:33:54;;;;;;;10.80;3.30;;;;;;;;;;4982845;28;20030;-73
2023/10/16 08:36:21;;;;;;;10.07;3.50;;;;;;;;;;4982149;28;20277;-73
2023/10/16 08:38:54;;;;;;;13.60;3.70;;;;;;;;;;4986078;28;20042;-75
2023/10/16 08:41:42;;;;;;;12.45;3.60;;;;;;;;;;4980798;28;20341;-75
2023/10/16 08:44:14;;;;;;;11.18;4.20;;;;;;;;;;4980076;28;20025;-74
2023/10/16 08:49:39;;;;;;;11.93;4.43;;;;;;;;;;4947076;28;20558;-73
2023/10/16 08:52:20;;;;;;;12.25;4.20;;;;;;;;;;4944348;28;20511;-73
2023/10/16 08:57:19;;;;;;;12.20;4.65;;;;;;;;;;4939449;28;20745;-74
2023/10/16 08:59:47;;;;;;;12.82;5.07;;;;;;;;;;4942671;28;20042;-74
2023/10/16 09:02:14;;;;;;;12.10;4.70;;;;;;;;;;4943450;28;20031;-73
2023/10/16 09:04:41;;;;;;;12.65;5.10;;;;;;;;;;4929952;28;20030;-73
2023/10/16 09:07:10;;;;;;;15.45;5.10;;;;;;;;;;4925756;28;20270;-74
2023/10/16 09:09:41;;;;;;;15.50;6.13;;;;;;;;;;4944682;28;20481;-73
2023/10/16 09:12:10;;;;;;;18.55;10.77;;;;;;;;;;4940963;28;20652;-73
2023/10/16 09:14:39;;;;;;;17.40;9.15;;;;;;;;;;4939112;28;20513;-73
2023/10/16 09:17:08;;;;;;;18.48;7.68;;;;;;;;;;4942105;28;20035;-73
2023/10/16 09:19:34;;;;;;;16.30;6.97;;;;;;;;;;4946309;28;20046;-73
2023/10/16 09:22:10;;;;;;;15.85;5.97;;;;;;;;;;4945512;28;20805;-73
2023/10/16 09:24:38;;;;;;;17.80;6.30;;;;;;;;;;4952092;28;20709;-73
2023/10/16 09:27:22;;;;;;;19.05;6.30;;;;;;;;;;4982405;28;20468;-73
2023/10/16 09:29:53;;;;;;;18.45;6.20;;;;;;;;;;4998317;28;20060;-74
2023/10/16 09:32:27;;;;;;;19.48;6.47;;;;;;;;;;4975122;28;20029;-74
2023/10/16 09:34:54;;;;;;;19.95;8.05;;;;;;;;;;4982839;28;20034;-74
2023/10/16 09:37:31;;;;;;;23.10;8.50;;;;;;;;;;4978701;28;20050;-74
2023/10/16 09:40:06;;;;;;;16.88;7.13;;;;;;;;;;4996271;28;20148;-73
2023/10/16 09:42:34;;;;;;;22.23;7.90;;;;;;;;;;4981528;28;20491;-73
2023/10/16 09:45:07;;;;;;;25.38;8.43;;;;;;;;;;4996492;28;20499;-74
2023/10/16 09:47:38;;;;;;;22.15;10.00;;;;;;;;;;4984162;28;20865;-74
2023/10/16 09:50:16;;;;;;;28.23;17.35;;;;;;;;;;4977980;28;20028;-74
2023/10/16 09:52:46;;;;;;;40.50;27.55;;;;;;;;;;4983949;28;20132;-73
2023/10/16 09:55:13;;;;;;;34.97;23.13;;;;;;;;;;4976584;28;20532;-74
2023/10/16 09:57:49;;;;;;;32.92;23.90;;;;;;;;;;4981627;28;20109;-74
2023/10/16 10:03:03;;;;;;;36.10;24.02;;;;;;;;;;4984791;28;20155;-73
2023/10/16 10:05:41;;;;;;;35.75;24.83;;;;;;;;;;4995070;28;20034;-74
2023/10/16 10:08:15;;;;;;;37.35;25.33;;;;;;;;;;4978103;28;20556;-74
2023/10/16 10:13:35;;;;;;;32.90;21.25;;;;;;;;;;4981559;28;20214;-74
2023/10/16 10:16:10;;;;;;;30.83;18.45;;;;;;;;;;4980621;28;20067;-74
2023/10/16 10:18:46;;;;;;;27.85;15.30;;;;;;;;;;4980505;28;20459;-74
2023/10/16 10:21:27;;;;;;;20.73;10.50;;;;;;;;;;4977678;28;20113;-74
2023/10/16 10:24:00;;;;;;;20.60;10.27;;;;;;;;;;4984570;28;20178;-74
2023/10/16 10:26:27;;;;;;;22.17;11.80;;;;;;;;;;4977567;28;20259;-74
2023/10/16 10:29:16;;;;;;;18.65;10.60;;;;;;;;;;4980611;28;20429;-75
2023/10/16 10:31:43;;;;;;;16.80;8.68;;;;;;;;;;4996431;28;20042;-73
2023/10/16 10:34:23;;;;;;;16.77;8.77;;;;;;;;;;4979173;28;20257;-73
2023/10/16 10:36:50;;;;;;;17.02;8.80;;;;;;;;;;4982909;28;20136;-73
2023/10/16 10:39:36;;;;;;;21.15;10.02;;;;;;;;;;4978426;28;20449;-74
2023/10/16 10:42:05;;;;;;;21.65;10.73;;;;;;;;;;4996301;28;20053;-75
2023/10/16 10:44:32;;;;;;;17.70;9.40;;;;;;;;;;4997013;28;20026;-73
2023/10/16 10:47:02;;;;;;;18.55;10.43;;;;;;;;;;4981607;28;20034;-73
2023/10/16 10:49:35;;;;;;;18.27;10.82;;;;;;;;;;4982267;28;20318;-75
2023/10/16 10:52:05;;;;;;;23.15;12.38;;;;;;;;;;4984593;28;20045;-73
2023/10/16 10:54:31;;;;;;;26.17;13.60;;;;;;;;;;4983566;28;20034;-74
2023/10/16 10:57:07;;;;;;;24.70;14.07;;;;;;;;;;4983310;28;20146;-73
2023/10/16 10:59:40;;;;;;;30.67;16.38;;;;;;;;;;4981477;28;20092;-74
2023/10/16 11:02:21;;;;;;;25.00;13.55;;;;;;;;;;4992570;28;20064;-74
2023/10/16 11:04:53;;;;;;;31.42;17.73;;;;;;;;;;4984515;28;20033;-73
2023/10/16 11:07:28;;;;;;;31.23;18.75;;;;;;;;;;5001141;28;20029;-74
2023/10/16 11:09:57;;;;;;;26.90;16.10;;;;;;;;;;5001251;28;20269;-74
2023/10/16 11:12:26;;;;;;;27.65;13.90;;;;;;;;;;4979888;28;20091;-74
2023/10/16 11:14:56;;;;;;;22.15;11.73;;;;;;;;;;4984683;28;20072;-74
2023/10/16 11:17:32;;;;;;;21.10;11.68;;;;;;;;;;4987484;28;20069;-74
2023/10/16 11:19:59;;;;;;;;;;;;;;;;;;4989276;28;20300;-73
2023/10/16 11:22:27;;;;;;;19.58;11.10;;;;;;;;;;4987959;28;19917;-74
2023/10/16 11:24:54;;;;;;;25.02;14.82;;;;;;;;;;4987620;28;20045;-73
2023/10/16 11:27:20;;;;;;;27.85;15.70;;;;;;;;;;4986098;28;20029;-73
2023/10/16 11:29:47;;;;;;;25.50;15.05;;;;;;;;;;4988121;28;20041;-72
2023/10/16 11:32:17;;;;;;;27.67;16.73;;;;;;;;;;4985700;28;20496;-73
2023/10/16 11:34:51;;;;;;;31.20;15.45;;;;;;;;;;4990220;28;20055;-75
2023/10/16 11:37:25;;;;;;;26.70;15.88;;;;;;;;;;4981937;28;20544;-73
2023/10/16 11:39:51;;;;;;;28.02;15.43;;;;;;;;;;4985454;28;20064;-73
2023/10/16 11:42:17;;;;;;;25.73;14.77;;;;;;;;;;4981623;28;20440;-73
2023/10/16 11:44:44;;;;;;;26.23;15.35;;;;;;;;;;4988963;28;20095;-73
2023/10/16 11:47:18;;;;;;;21.15;13.80;;;;;;;;;;4982997;28;20184;-72
2023/10/16 11:49:53;;;;;;;25.30;14.43;;;;;;;;;;5002299;28;20123;-71
2023/10/16 11:52:19;;;;;;;21.37;12.83;;;;;;;;;;4984859;28;20042;-70
2023/10/16 11:54:48;;;;;;;22.52;12.70;;;;;;;;;;4988994;28;20041;-71
2023/10/16 11:57:15;;;;;;;23.92;12.80;;;;;;;;;;4981926;28;20026;-72
2023/10/16 11:59:42;;;;;;;24.55;12.70;;;;;;;;;;4987408;28;20428;-70
2023/10/16 12:02:11;;;;;;;23.13;12.43;;;;;;;;;;4985438;28;20026;-70
2023/10/16 12:04:40;;;;;;;18.38;9.75;;;;;;;;;;4987436;28;20162;-70
2023/10/16 12:07:07;;;;;;;22.52;11.70;;;;;;;;;;4984986;28;20073;-71
2023/10/16 12:09:37;;;;;;;20.77;11.65;;;;;;;;;;4989500;28;21545;-70
2023/10/16 12:12:06;;;;;;;23.65;13.38;;;;;;;;;;4982916;28;20427;-71
2023/10/16 12:14:39;;;;;;;18.83;11.32;;;;;;;;;;4986355;28;20379;-70
2023/10/16 12:17:06;;;;;;;21.27;12.18;;;;;;;;;;4986864;28;20152;-71
2023/10/16 12:19:34;;;;;;;24.40;13.35;;;;;;;;;;4987460;28;20045;-71
2023/10/16 12:22:00;;;;;;;22.63;12.45;;;;;;;;;;4989408;28;20021;-71
2023/10/16 12:24:27;;;;;;;21.10;11.10;;;;;;;;;;4986238;28;20462;-71
2023/10/16 12:26:53;;;;;;;20.33;11.02;;;;;;;;;;4991048;28;20505;-71
2023/10/16 12:29:20;;;;;;;20.20;10.93;;;;;;;;;;4982749;28;20026;-71
2023/10/16 12:31:48;;;;;;;22.83;10.00;;;;;;;;;;4990323;28;20092;-70
2023/10/16 12:34:17;;;;;;;20.60;9.50;;;;;;;;;;4989538;28;20046;-71
2023/10/16 12:36:43;;;;;;;17.48;8.60;;;;;;;;;;4996902;28;20531;-71
2023/10/16 12:39:24;;;;;;;17.15;7.80;;;;;;;;;;4988019;28;20037;-72
2023/10/16 12:41:54;;;;;;;17.70;7.57;;;;;;;;;;4991985;28;20022;-72
2023/10/16 12:44:20;;;;;;;17.58;7.25;;;;;;;;;;4985653;28;20475;-72
2023/10/16 12:46:46;;;;;;;17.17;6.28;;;;;;;;;;4990544;28;20034;-72
2023/10/16 12:49:13;;;;;;;17.58;6.63;;;;;;;;;;4986089;28;20069;-72
2023/10/16 12:51:40;;;;;;;20.08;7.20;;;;;;;;;;4987470;28;20916;-72
2023/10/16 12:54:07;;;;;;;17.95;6.53;;;;;;;;;;4988411;28;20453;-73
2023/10/16 12:56:35;;;;;;;19.52;6.18;;;;;;;;;;4987593;28;20400;-72
2023/10/16 12:59:01;;;;;;;14.25;4.95;;;;;;;;;;4986687;28;20038;-72
2023/10/16 13:01:27;;;;;;;16.55;5.35;;;;;;;;;;4984655;28;20029;-71
2023/10/16 13:03:59;;;;;;;16.52;5.82;;;;;;;;;;4987937;28;20040;-72
2023/10/16 13:06:29;;;;;;;16.52;5.70;;;;;;;;;;4983675;28;20026;-72
2023/10/16 13:08:56;;;;;;;15.25;5.50;;;;;;;;;;4988450;28;20382;-73
2023/10/16 13:11:23;;;;;;;16.35;5.63;;;;;;;;;;4982983;28;20544;-73
2023/10/16 13:13:49;;;;;;;18.88;6.78;;;;;;;;;;4986407;28;20094;-73
2023/10/16 13:16:24;;;;;;;16.30;5.40;;;;;;;;;;4990788;28;20034;-74
2023/10/16 13:18:59;;;;;;;18.23;6.22;;;;;;;;;;5002513;28;20513;-74
2023/10/16 13:21:35;;;;;;;18.75;6.15;;;;;;;;;;5001845;28;20029;-74
2023/10/16 13:24:06;;;;;;;13.00;5.40;;;;;;;;;;4991421;28;20026;-75
2023/10/16 13:26:36;;;;;;;14.80;5.10;;;;;;;;;;4987761;28;20038;-74
2023/10/16 13:29:07;;;;;;;13.68;5.40;;;;;;;;;;4983988;28;20045;-74
2023/10/16 13:31:37;;;;;;;18.00;5.85;;;;;;;;;;4999690;28;20034;-73
2023/10/16 13:34:10;;;;;;;19.98;7.05;;;;;;;;;;4985297;28;20086;-74
2023/10/16 13:36:37;;;;;;;26.40;7.32;;;;;;;;;;4986467;28;20033;-74
2023/10/16 13:39:11;;;;;;;20.63;6.40;;;;;;;;;;4987498;28;20275;-74
2023/10/16 13:41:50;;;;;;;14.32;5.65;;;;;;;;;;4989283;28;20041;-75
2023/10/16 13:44:19;;;;;;;17.67;6.10;;;;;;;;;;4985900;28;20030;-75
2023/10/16 13:46:54;;;;;;;19.55;5.45;;;;;;;;;;4987515;28;20116;-75
2023/10/16 13:49:23;;;;;;;14.07;4.53;;;;;;;;;;4983669;28;20120;-75
2023/10/16 13:51:53;;;;;;;19.05;5.53;;;;;;;;;;4984707;28;20040;-75
2023/10/16 13:54:20;;;;;;;15.35;4.80;;;;;;;;;;4985543;28;20473;-74
2023/10/16 13:56:46;;;;;;;16.13;5.22;;;;;;;;;;4984474;28;20044;-75
2023/10/16 13:59:18;;;;;;;14.35;4.75;;;;;;;;;;4980990;28;20048;-74
2023/10/16 14:01:45;;;;;;;12.80;4.85;;;;;;;;;;4988523;28;20084;-75
2023/10/16 14:04:15;;;;;;;15.88;5.05;;;;;;;;;;4989068;28;20312;-75
2023/10/16 14:06:43;;;;;;;12.25;5.10;;;;;;;;;;4986437;28;20563;-75
2023/10/16 14:09:20;;;;;;;14.95;5.50;;;;;;;;;;4984440;28;20299;-75
2023/10/16 14:11:50;;;;;;;14.55;5.20;;;;;;;;;;5006290;28;20148;-75
2023/10/16 14:14:20;;;;;;;15.55;5.18;;;;;;;;;;4985881;28;20042;-76
2023/10/16 14:16:50;;;;;;;12.77;4.30;;;;;;;;;;4984069;28;20391;-76
2023/10/16 14:19:19;;;;;;;14.40;4.90;;;;;;;;;;4997248;28;20060;-74
2023/10/16 14:21:47;;;;;;;15.55;4.90;;;;;;;;;;4986760;28;20504;-76
2023/10/16 14:24:17;;;;;;;12.88;4.68;;;;;;;;;;4986558;28;20037;-75
2023/10/16 14:26:49;;;;;;;14.63;5.28;;;;;;;;;;4982195;28;20108;-75
2023/10/16 14:29:15;;;;;;;12.30;4.70;;;;;;;;;;4982458;28;20030;-76
2023/10/16 14:31:46;;;;;;;15.30;5.57;;;;;;;;;;4997459;28;20049;-75
2023/10/16 14:34:18;;;;;;;14.88;5.18;;;;;;;;;;4978334;28;20168;-76
2023/10/16 14:36:48;;;;;;;65.60;10.38;;;;;;;;;;4991383;28;20042;-74
2023/10/16 14:39:14;;;;;;;21.95;5.88;;;;;;;;;;4981899;28;20056;-77
2023/10/16 14:41:44;;;;;;;17.50;5.75;;;;;;;;;;4990004;28;20030;-74
2023/10/16 14:44:11;;;;;;;13.38;5.32;;;;;;;;;;4985899;28;20064;-77
2023/10/16 14:46:38;;;;;;;18.20;6.10;;;;;;;;;;4995267;28;20033;-74
2023/10/16 14:49:08;;;;;;;17.73;5.70;;;;;;;;;;4988256;28;20066;-75
2023/10/16 14:51:34;;;;;;;17.50;5.65;;;;;;;;;;4989605;28;20032;-75
2023/10/16 14:54:01;;;;;;;17.38;6.18;;;;;;;;;;4993452;28;20590;-75
2023/10/16 14:56:28;;;;;;;14.90;5.63;;;;;;;;;;4992295;28;20034;-75
2023/10/16 14:58:55;;;;;;;15.30;5.50;;;;;;;;;;4994944;28;20357;-75
2023/10/16 15:01:21;;;;;;;14.75;5.68;;;;;;;;;;4985334;28;20203;-75
2023/10/16 15:03:49;;;;;;;15.82;5.18;;;;;;;;;;4989517;28;20033;-75
2023/10/16 15:06:15;;;;;;;15.73;5.88;;;;;;;;;;4984867;28;20537;-75
2023/10/16 15:08:45;;;;;;;14.88;5.30;;;;;;;;;;4987191;28;20037;-75
2023/10/16 15:11:11;;;;;;;14.98;6.22;;;;;;;;;;4989156;28;20459;-76
2023/10/16 15:13:38;;;;;;;15.35;4.80;;;;;;;;;;4992842;28;20037;-76
2023/10/16 15:16:06;;;;;;;15.68;5.95;;;;;;;;;;4987788;28;20604;-75
2023/10/16 15:18:33;;;;;;;15.65;5.25;;;;;;;;;;4989625;28;20117;-75
2023/10/16 15:21:02;;;;;;;14.13;5.38;;;;;;;;;;4990513;28;20469;-76
2023/10/16 15:23:31;;;;;;;15.85;5.93;;;;;;;;;;4986742;28;20070;-76
2023/10/16 15:25:57;;;;;;;15.18;5.60;;;;;;;;;;4989889;28;20033;-76
2023/10/16 15:28:25;;;;;;;17.55;6.18;;;;;;;;;;4985225;28;20025;-76
2023/10/16 15:30:53;;;;;;;15.05;5.40;;;;;;;;;;4991501;28;20519;-76
2023/10/16 15:33:20;;;;;;;14.48;5.78;;;;;;;;;;5002572;28;20040;-76
2023/10/16 15:35:51;;;;;;;15.57;5.57;;;;;;;;;;5003613;28;20038;-76
2023/10/16 15:38:18;;;;;;;17.10;5.97;;;;;;;;;;5004384;28;20501;-76
2023/10/16 15:40:45;;;;;;;12.52;5.18;;;;;;;;;;4991189;28;20030;-76
2023/10/16 15:43:12;;;;;;;14.68;5.38;;;;;;;;;;4986622;28;20042;-77
2023/10/16 15:45:40;;;;;;;14.07;5.05;;;;;;;;;;4989484;28;20042;-76
2023/10/16 15:48:07;;;;;;;14.25;4.85;;;;;;;;;;5001590;28;20483;-76
2023/10/16 15:50:35;;;;;;;15.25;5.43;;;;;;;;;;4989518;28;20026;-75
2023/10/16 15:53:04;;;;;;;14.73;5.10;;;;;;;;;;4988906;28;20029;-76
2023/10/16 15:55:31;;;;;;;19.35;7.18;;;;;;;;;;4987229;28;20045;-76
2023/10/16 15:57:57;;;;;;;16.88;6.18;;;;;;;;;;4990213;28;20042;-76
2023/10/16 16:00:26;;;;;;;15.65;5.75;;;;;;;;;;4985887;28;20668;-76
2023/10/16 16:02:59;;;;;;;18.30;6.00;;;;;;;;;;4989949;28;20344;-75
2023/10/16 16:05:27;;;;;;;17.15;6.60;;;;;;;;;;4985587;28;20318;-76
2023/10/16 16:07:54;;;;;;;18.00;7.25;;;;;;;;;;4987791;28;20029;-76
2023/10/16 16:10:20;;;;;;;20.52;7.07;;;;;;;;;;4986441;28;20081;-77
2023/10/16 16:12:47;;;;;;;19.30;6.60;;;;;;;;;;4985929;28;20959;-74
2023/10/16 16:15:17;;;;;;;14.63;5.63;;;;;;;;;;5001510;28;20026;-74
2023/10/16 16:17:44;;;;;;;16.10;6.25;;;;;;;;;;4989829;28;20053;-74
2023/10/16 16:20:15;;;;;;;16.75;6.10;;;;;;;;;;4986979;28;20029;-76
2023/10/16 16:22:42;;;;;;;15.35;5.18;;;;;;;;;;4987864;28;20546;-75
2023/10/16 16:25:12;;;;;;;11.02;4.47;;;;;;;;;;4983334;28;20039;-76
2023/10/16 16:27:39;;;;;;;15.57;4.75;;;;;;;;;;4989569;28;20034;-76
2023/10/16 16:30:07;;;;;;;12.32;4.97;;;;;;;;;;4987043;28;20041;-75
2023/10/16 16:32:34;;;;;;;14.52;5.10;;;;;;;;;;5002128;28;20064;-75
2023/10/16 16:35:00;;;;;;;14.70;6.10;;;;;;;;;;4986004;28;20693;-75
2023/10/16 16:37:27;;;;;;;15.07;5.07;;;;;;;;;;4985944;28;20088;-75
2023/10/16 16:39:53;;;;;;;14.52;5.10;;;;;;;;;;4988747;28;20508;-75
2023/10/16 16:42:19;;;;;;;13.80;5.55;;;;;;;;;;4985799;28;20026;-75
2023/10/16 16:44:45;;;;;;;12.55;5.55;;;;;;;;;;5004982;28;20034;-75
2023/10/16 16:47:11;;;;;;;14.93;5.45;;;;;;;;;;4986207;28;20030;-75
2023/10/16 16:49:39;;;;;;;16.45;6.45;;;;;;;;;;4987645;28;20052;-74